sensor_id;sensor_type;location;lat;lon;timestamp;pressure;altitude;pressure_sealevel;temperature;humidity
77454;BME280;66538;53.150;18.160;2023-08-06T00:01:31;100526.88;;;16.46;90.17
77454;BME280;66538;53.150;18.160;2023-08-06T00:03:58;100514.39;;;16.43;90.41
77454;BME280;66538;53.150;18.160;2023-08-06T00:06:26;100506.20;;;16.42;90.25
77454;BME280;66538;53.150;18.160;2023-08-06T00:08:52;100498.85;;;16.39;90.34
77454;BME280;66538;53.150;18.160;2023-08-06T00:11:19;100491.70;;;16.36;90.05
77454;BME280;66538;53.150;18.160;2023-08-06T00:13:46;100487.79;;;16.35;89.93
77454;BME280;66538;53.150;18.160;2023-08-06T00:16:13;100480.51;;;16.34;90.00
77454;BME280;66538;53.150;18.160;2023-08-06T00:18:40;100475.30;;;16.32;90.13
77454;BME280;66538;53.150;18.160;2023-08-06T00:21:07;100470.27;;;16.32;90.07
77454;BME280;66538;53.150;18.160;2023-08-06T00:23:33;100466.88;;;16.32;90.32
77454;BME280;66538;53.150;18.160;2023-08-06T00:26:00;100473.96;;;16.31;90.29
77454;BME280;66538;53.150;18.160;2023-08-06T00:28:26;100471.27;;;16.32;90.24
77454;BME280;66538;53.150;18.160;2023-08-06T00:30:54;100459.79;;;16.31;90.66
77454;BME280;66538;53.150;18.160;2023-08-06T00:33:22;100453.05;;;16.32;90.38
77454;BME280;66538;53.150;18.160;2023-08-06T00:35:48;100438.43;;;16.32;90.61
77454;BME280;66538;53.150;18.160;2023-08-06T00:38:15;100430.91;;;16.31;90.33
77454;BME280;66538;53.150;18.160;2023-08-06T00:40:42;100427.89;;;16.31;90.49
77454;BME280;66538;53.150;18.160;2023-08-06T00:43:08;100425.30;;;16.31;90.59
77454;BME280;66538;53.150;18.160;2023-08-06T00:45:36;100424.54;;;16.30;90.41
77454;BME280;66538;53.150;18.160;2023-08-06T00:48:05;100425.72;;;16.30;90.45
77454;BME280;66538;53.150;18.160;2023-08-06T00:50:33;100415.48;;;16.29;90.42
77454;BME280;66538;53.150;18.160;2023-08-06T00:53:00;100409.98;;;16.29;90.29
77454;BME280;66538;53.150;18.160;2023-08-06T00:55:28;100395.04;;;16.26;90.46
77454;BME280;66538;53.150;18.160;2023-08-06T00:57:55;100389.59;;;16.25;90.60
77454;BME280;66538;53.150;18.160;2023-08-06T01:00:23;100388.52;;;16.25;90.60
77454;BME280;66538;53.150;18.160;2023-08-06T01:02:51;100386.36;;;16.25;90.48
77454;BME280;66538;53.150;18.160;2023-08-06T01:05:18;100383.00;;;16.23;90.62
77454;BME280;66538;53.150;18.160;2023-08-06T01:08:05;100381.77;;;16.20;90.42
77454;BME280;66538;53.150;18.160;2023-08-06T01:13:42;100371.44;;;16.19;90.52
77454;BME280;66538;53.150;18.160;2023-08-06T01:16:11;100356.02;;;16.20;90.50
77454;BME280;66538;53.150;18.160;2023-08-06T01:18:37;100351.16;;;16.22;90.69
77454;BME280;66538;53.150;18.160;2023-08-06T01:21:05;100332.52;;;16.20;90.76
77454;BME280;66538;53.150;18.160;2023-08-06T01:23:32;100323.63;;;16.20;91.19
77454;BME280;66538;53.150;18.160;2023-08-06T01:26:09;100313.25;;;16.20;91.00
77454;BME280;66538;53.150;18.160;2023-08-06T01:31:22;100292.08;;;16.17;91.51
77454;BME280;66538;53.150;18.160;2023-08-06T01:33:52;100282.98;;;16.17;91.72
77454;BME280;66538;53.150;18.160;2023-08-06T01:36:20;100271.58;;;16.17;91.52
77454;BME280;66538;53.150;18.160;2023-08-06T01:38:47;100254.92;;;16.17;91.87
77454;BME280;66538;53.150;18.160;2023-08-06T01:41:14;100238.97;;;16.18;91.99
77454;BME280;66538;53.150;18.160;2023-08-06T01:43:41;100227.09;;;16.18;91.88
77454;BME280;66538;53.150;18.160;2023-08-06T01:46:07;100227.23;;;16.18;92.00
77454;BME280;66538;53.150;18.160;2023-08-06T01:48:34;100231.85;;;16.18;92.05
77454;BME280;66538;53.150;18.160;2023-08-06T01:51:01;100236.66;;;16.18;92.29
77454;BME280;66538;53.150;18.160;2023-08-06T01:53:28;100235.04;;;16.19;92.28
77454;BME280;66538;53.150;18.160;2023-08-06T01:55:54;100220.85;;;16.20;92.58
77454;BME280;66538;53.150;18.160;2023-08-06T01:58:21;100213.18;;;16.20;92.78
77454;BME280;66538;53.150;18.160;2023-08-06T02:00:47;100203.15;;;16.18;92.48
77454;BME280;66538;53.150;18.160;2023-08-06T02:03:14;100187.82;;;16.20;92.70
77454;BME280;66538;53.150;18.160;2023-08-06T02:05:41;100178.95;;;16.19;92.71
77454;BME280;66538;53.150;18.160;2023-08-06T02:08:08;100160.42;;;16.19;92.72
77454;BME280;66538;53.150;18.160;2023-08-06T02:10:35;100150.96;;;16.19;92.92
77454;BME280;66538;53.150;18.160;2023-08-06T02:13:02;100134.23;;;16.20;92.92
77454;BME280;66538;53.150;18.160;2023-08-06T02:15:28;100127.95;;;16.20;92.89
77454;BME280;66538;53.150;18.160;2023-08-06T02:17:55;100117.70;;;16.18;93.29
77454;BME280;66538;53.150;18.160;2023-08-06T02:20:21;100119.11;;;16.20;93.02
77454;BME280;66538;53.150;18.160;2023-08-06T02:22:48;100115.16;;;16.20;93.06
77454;BME280;66538;53.150;18.160;2023-08-06T02:25:15;100119.80;;;16.21;93.00
77454;BME280;66538;53.150;18.160;2023-08-06T02:27:42;100121.05;;;16.23;92.91
77454;BME280;66538;53.150;18.160;2023-08-06T02:30:09;100119.35;;;16.23;93.19
77454;BME280;66538;53.150;18.160;2023-08-06T02:32:35;100131.76;;;16.26;93.53
77454;BME280;66538;53.150;18.160;2023-08-06T02:35:02;100134.23;;;16.25;93.22
77454;BME280;66538;53.150;18.160;2023-08-06T02:37:29;100134.02;;;16.27;93.19
77454;BME280;66538;53.150;18.160;2023-08-06T02:39:55;100130.15;;;16.28;93.19
77454;BME280;66538;53.150;18.160;2023-08-06T02:42:22;100125.16;;;16.28;93.07
77454;BME280;66538;53.150;18.160;2023-08-06T02:44:49;100115.27;;;16.29;93.08
77454;BME280;66538;53.150;18.160;2023-08-06T02:47:16;100111.43;;;16.29;92.97
77454;BME280;66538;53.150;18.160;2023-08-06T02:49:43;100112.75;;;16.31;92.87
77454;BME280;66538;53.150;18.160;2023-08-06T02:52:10;100110.91;;;16.30;92.86
77454;BME280;66538;53.150;18.160;2023-08-06T02:54:37;100106.85;;;16.32;92.95
77454;BME280;66538;53.150;18.160;2023-08-06T02:57:04;100104.73;;;16.32;93.06
77454;BME280;66538;53.150;18.160;2023-08-06T02:59:32;100109.18;;;16.33;93.05
77454;BME280;66538;53.150;18.160;2023-08-06T03:02:05;100111.50;;;16.34;93.12
77454;BME280;66538;53.150;18.160;2023-08-06T03:04:42;100110.70;;;16.35;92.96
77454;BME280;66538;53.150;18.160;2023-08-06T03:07:09;100105.19;;;16.36;93.17
77454;BME280;66538;53.150;18.160;2023-08-06T03:09:42;100092.16;;;16.37;93.16
77454;BME280;66538;53.150;18.160;2023-08-06T03:12:09;100078.02;;;16.38;93.07
77454;BME280;66538;53.150;18.160;2023-08-06T03:14:35;100066.99;;;16.40;93.09
77454;BME280;66538;53.150;18.160;2023-08-06T03:17:04;100072.40;;;16.41;93.05
77454;BME280;66538;53.150;18.160;2023-08-06T03:19:30;100075.84;;;16.43;92.99
77454;BME280;66538;53.150;18.160;2023-08-06T03:21:57;100077.34;;;16.44;93.18
77454;BME280;66538;53.150;18.160;2023-08-06T03:24:25;100078.72;;;16.46;93.11
77454;BME280;66538;53.150;18.160;2023-08-06T03:26:52;100070.11;;;16.47;92.83
77454;BME280;66538;53.150;18.160;2023-08-06T03:29:18;100066.54;;;16.50;92.88
77454;BME280;66538;53.150;18.160;2023-08-06T03:31:46;100065.02;;;16.51;93.03
77454;BME280;66538;53.150;18.160;2023-08-06T03:34:13;100069.80;;;16.54;93.08
77454;BME280;66538;53.150;18.160;2023-08-06T03:36:41;100070.20;;;16.56;93.13
77454;BME280;66538;53.150;18.160;2023-08-06T03:39:07;100067.05;;;16.57;93.13
77454;BME280;66538;53.150;18.160;2023-08-06T03:41:34;100062.77;;;16.60;93.16
77454;BME280;66538;53.150;18.160;2023-08-06T03:44:01;100052.58;;;16.61;92.84
77454;BME280;66538;53.150;18.160;2023-08-06T03:46:30;100045.04;;;16.64;92.91
77454;BME280;66538;53.150;18.160;2023-08-06T03:49:00;100037.79;;;16.67;93.20
77454;BME280;66538;53.150;18.160;2023-08-06T03:51:27;100028.33;;;16.69;93.06
77454;BME280;66538;53.150;18.160;2023-08-06T03:53:54;100018.20;;;16.70;92.99
77454;BME280;66538;53.150;18.160;2023-08-06T03:56:20;100006.77;;;16.73;93.16
77454;BME280;66538;53.150;18.160;2023-08-06T03:58:47;99999.48;;;16.76;93.23
77454;BME280;66538;53.150;18.160;2023-08-06T04:01:14;99983.17;;;16.77;93.15
77454;BME280;66538;53.150;18.160;2023-08-06T04:03:43;99962.78;;;16.78;93.75
77454;BME280;66538;53.150;18.160;2023-08-06T04:06:10;99932.82;;;16.79;93.96
77454;BME280;66538;53.150;18.160;2023-08-06T04:08:37;99909.11;;;16.79;93.81
77454;BME280;66538;53.150;18.160;2023-08-06T04:11:03;99881.78;;;16.82;94.24
77454;BME280;66538;53.150;18.160;2023-08-06T04:13:30;99866.89;;;16.83;94.23
77454;BME280;66538;53.150;18.160;2023-08-06T04:16:04;99880.71;;;16.86;94.34
77454;BME280;66538;53.150;18.160;2023-08-06T04:18:31;99891.83;;;16.88;94.40
77454;BME280;66538;53.150;18.160;2023-08-06T04:20:58;99883.90;;;16.91;94.32
77454;BME280;66538;53.150;18.160;2023-08-06T04:23:25;99873.67;;;16.94;94.53
77454;BME280;66538;53.150;18.160;2023-08-06T04:25:58;99881.73;;;16.95;94.40
77454;BME280;66538;53.150;18.160;2023-08-06T04:28:25;99888.89;;;16.98;94.37
77454;BME280;66538;53.150;18.160;2023-08-06T04:30:53;99895.67;;;17.01;94.36
77454;BME280;66538;53.150;18.160;2023-08-06T04:33:20;99903.55;;;17.02;94.09
77454;BME280;66538;53.150;18.160;2023-08-06T04:35:47;99898.95;;;17.05;94.20
77454;BME280;66538;53.150;18.160;2023-08-06T04:38:19;99878.23;;;17.08;94.20
77454;BME280;66538;53.150;18.160;2023-08-06T04:40:46;99877.52;;;17.09;94.21
77454;BME280;66538;53.150;18.160;2023-08-06T04:43:12;99880.73;;;17.13;94.08
77454;BME280;66538;53.150;18.160;2023-08-06T04:45:46;99885.96;;;17.15;94.33
77454;BME280;66538;53.150;18.160;2023-08-06T04:48:13;99876.63;;;17.19;94.10
77454;BME280;66538;53.150;18.160;2023-08-06T04:50:46;99873.72;;;17.23;94.00
77454;BME280;66538;53.150;18.160;2023-08-06T04:53:13;99877.25;;;17.27;94.08
77454;BME280;66538;53.150;18.160;2023-08-06T04:55:40;99870.44;;;17.31;93.88
77454;BME280;66538;53.150;18.160;2023-08-06T04:58:09;99873.38;;;17.34;93.81
77454;BME280;66538;53.150;18.160;2023-08-06T05:00:36;99875.52;;;17.39;93.95
77454;BME280;66538;53.150;18.160;2023-08-06T05:03:02;99864.41;;;17.43;93.91
77454;BME280;66538;53.150;18.160;2023-08-06T05:05:29;99838.16;;;17.47;93.69
77454;BME280;66538;53.150;18.160;2023-08-06T05:07:57;99815.23;;;17.53;93.81
77454;BME280;66538;53.150;18.160;2023-08-06T05:10:26;99802.74;;;17.56;93.89
77454;BME280;66538;53.150;18.160;2023-08-06T05:12:53;99812.41;;;17.61;93.94
77454;BME280;66538;53.150;18.160;2023-08-06T05:15:20;99825.29;;;17.65;93.86
77454;BME280;66538;53.150;18.160;2023-08-06T05:17:47;99816.49;;;17.70;93.90
77454;BME280;66538;53.150;18.160;2023-08-06T05:20:14;99810.74;;;17.73;94.02
77454;BME280;66538;53.150;18.160;2023-08-06T05:22:41;99813.64;;;17.75;93.88
77454;BME280;66538;53.150;18.160;2023-08-06T05:25:07;99829.02;;;17.78;93.99
77454;BME280;66538;53.150;18.160;2023-08-06T05:27:34;99836.24;;;17.80;93.76
77454;BME280;66538;53.150;18.160;2023-08-06T05:30:01;99833.13;;;17.81;93.74
77454;BME280;66538;53.150;18.160;2023-08-06T05:32:27;99828.65;;;17.83;93.67
77454;BME280;66538;53.150;18.160;2023-08-06T05:34:54;99830.05;;;17.84;93.56
77454;BME280;66538;53.150;18.160;2023-08-06T05:37:20;99830.64;;;17.88;93.54
77454;BME280;66538;53.150;18.160;2023-08-06T05:39:47;99827.76;;;17.88;93.76
77454;BME280;66538;53.150;18.160;2023-08-06T05:42:14;99815.66;;;17.90;93.55
77454;BME280;66538;53.150;18.160;2023-08-06T05:44:40;99806.83;;;17.93;93.66
77454;BME280;66538;53.150;18.160;2023-08-06T05:47:07;99803.29;;;17.95;93.56
77454;BME280;66538;53.150;18.160;2023-08-06T05:49:33;99809.96;;;17.97;93.69
77454;BME280;66538;53.150;18.160;2023-08-06T05:52:00;99815.17;;;18.01;93.61
77454;BME280;66538;53.150;18.160;2023-08-06T05:54:26;99818.14;;;18.02;93.59
77454;BME280;66538;53.150;18.160;2023-08-06T05:56:53;99815.42;;;18.05;93.37
77454;BME280;66538;53.150;18.160;2023-08-06T05:59:20;99815.10;;;18.08;93.34
77454;BME280;66538;53.150;18.160;2023-08-06T06:01:46;99815.02;;;18.12;93.44
77454;BME280;66538;53.150;18.160;2023-08-06T06:04:13;99812.95;;;18.16;93.29
77454;BME280;66538;53.150;18.160;2023-08-06T06:06:40;99807.23;;;18.18;93.19
77454;BME280;66538;53.150;18.160;2023-08-06T06:09:08;99795.24;;;18.21;93.27
77454;BME280;66538;53.150;18.160;2023-08-06T06:11:34;99781.02;;;18.22;93.14
77454;BME280;66538;53.150;18.160;2023-08-06T06:14:01;99778.34;;;18.27;93.17
77454;BME280;66538;53.150;18.160;2023-08-06T06:16:27;99776.21;;;18.31;93.04
77454;BME280;66538;53.150;18.160;2023-08-06T06:18:54;99776.66;;;18.35;92.82
77454;BME280;66538;53.150;18.160;2023-08-06T06:21:21;99775.33;;;18.39;92.78
77454;BME280;66538;53.150;18.160;2023-08-06T06:23:47;99770.09;;;18.45;92.60
77454;BME280;66538;53.150;18.160;2023-08-06T06:26:14;99765.25;;;18.48;92.77
77454;BME280;66538;53.150;18.160;2023-08-06T06:28:41;99762.81;;;18.50;92.67
77454;BME280;66538;53.150;18.160;2023-08-06T06:31:07;99757.15;;;18.52;92.45
77454;BME280;66538;53.150;18.160;2023-08-06T06:33:34;99754.33;;;18.55;92.46
77454;BME280;66538;53.150;18.160;2023-08-06T06:36:01;99744.66;;;18.59;92.34
77454;BME280;66538;53.150;18.160;2023-08-06T06:38:29;99739.16;;;18.62;92.38
77454;BME280;66538;53.150;18.160;2023-08-06T06:40:56;99741.02;;;18.66;91.97
77454;BME280;66538;53.150;18.160;2023-08-06T06:43:23;99733.29;;;18.70;91.99
77454;BME280;66538;53.150;18.160;2023-08-06T06:45:55;99727.59;;;18.76;91.90
77454;BME280;66538;53.150;18.160;2023-08-06T06:48:22;99722.73;;;18.82;91.83
77454;BME280;66538;53.150;18.160;2023-08-06T06:50:49;99724.57;;;18.88;91.68
77454;BME280;66538;53.150;18.160;2023-08-06T06:53:15;99730.08;;;18.91;91.58
77454;BME280;66538;53.150;18.160;2023-08-06T06:55:42;99727.41;;;18.96;91.47
77454;BME280;66538;53.150;18.160;2023-08-06T06:58:09;99726.14;;;18.98;91.45
77454;BME280;66538;53.150;18.160;2023-08-06T07:00:39;99726.01;;;19.01;91.31
77454;BME280;66538;53.150;18.160;2023-08-06T07:03:05;99712.55;;;19.07;91.04
77454;BME280;66538;53.150;18.160;2023-08-06T07:05:32;99711.61;;;19.12;91.05
77454;BME280;66538;53.150;18.160;2023-08-06T07:07:59;99708.56;;;19.20;90.79
77454;BME280;66538;53.150;18.160;2023-08-06T07:10:26;99711.02;;;19.27;90.65
77454;BME280;66538;53.150;18.160;2023-08-06T07:12:52;99710.77;;;19.31;90.53
77454;BME280;66538;53.150;18.160;2023-08-06T07:15:19;99704.77;;;19.30;90.41
77454;BME280;66538;53.150;18.160;2023-08-06T07:17:45;99705.50;;;19.31;90.32
77454;BME280;66538;53.150;18.160;2023-08-06T07:20:12;99699.79;;;19.29;90.04
77454;BME280;66538;53.150;18.160;2023-08-06T07:22:39;99702.90;;;19.31;90.24
77454;BME280;66538;53.150;18.160;2023-08-06T07:25:06;99700.09;;;19.32;90.22
77454;BME280;66538;53.150;18.160;2023-08-06T07:27:33;99697.18;;;19.32;89.96
77454;BME280;66538;53.150;18.160;2023-08-06T07:30:00;99689.10;;;19.35;89.91
77454;BME280;66538;53.150;18.160;2023-08-06T07:32:28;99675.91;;;19.36;89.89
77454;BME280;66538;53.150;18.160;2023-08-06T07:34:55;99670.02;;;19.39;89.79
77454;BME280;66538;53.150;18.160;2023-08-06T07:37:27;99672.38;;;19.44;89.73
77454;BME280;66538;53.150;18.160;2023-08-06T07:39:56;99663.83;;;19.49;89.50
77454;BME280;66538;53.150;18.160;2023-08-06T07:42:23;99652.45;;;19.49;89.32
77454;BME280;66538;53.150;18.160;2023-08-06T07:44:59;99646.13;;;19.50;89.37
77454;BME280;66538;53.150;18.160;2023-08-06T07:47:27;99640.91;;;19.53;89.33
77454;BME280;66538;53.150;18.160;2023-08-06T07:49:56;99642.27;;;19.57;89.44
77454;BME280;66538;53.150;18.160;2023-08-06T07:52:23;99641.81;;;19.57;89.30
77454;BME280;66538;53.150;18.160;2023-08-06T07:54:50;99646.05;;;19.57;89.11
77454;BME280;66538;53.150;18.160;2023-08-06T07:57:17;99644.44;;;19.58;88.98
77454;BME280;66538;53.150;18.160;2023-08-06T07:59:44;99643.08;;;19.60;88.88
77454;BME280;66538;53.150;18.160;2023-08-06T08:02:10;99636.95;;;19.61;88.43
77454;BME280;66538;53.150;18.160;2023-08-06T08:04:37;99627.73;;;19.60;88.36
77454;BME280;66538;53.150;18.160;2023-08-06T08:07:04;99626.79;;;19.60;88.67
77454;BME280;66538;53.150;18.160;2023-08-06T08:09:31;99621.71;;;19.62;88.61
77454;BME280;66538;53.150;18.160;2023-08-06T08:11:58;99620.89;;;19.63;88.52
77454;BME280;66538;53.150;18.160;2023-08-06T08:14:27;99623.38;;;19.65;88.46
77454;BME280;66538;53.150;18.160;2023-08-06T08:16:55;99624.77;;;19.68;88.37
77454;BME280;66538;53.150;18.160;2023-08-06T08:19:22;99621.27;;;19.72;88.47
77454;BME280;66538;53.150;18.160;2023-08-06T08:21:48;99619.55;;;19.76;88.11
77454;BME280;66538;53.150;18.160;2023-08-06T08:24:15;99612.91;;;19.75;87.94
77454;BME280;66538;53.150;18.160;2023-08-06T08:26:42;99604.09;;;19.71;87.94
77454;BME280;66538;53.150;18.160;2023-08-06T08:29:08;99598.40;;;19.70;88.16
77454;BME280;66538;53.150;18.160;2023-08-06T08:31:35;99598.11;;;19.74;88.15
77454;BME280;66538;53.150;18.160;2023-08-06T08:34:05;99595.70;;;19.82;88.01
77454;BME280;66538;53.150;18.160;2023-08-06T08:36:32;99584.73;;;19.87;87.82
77454;BME280;66538;53.150;18.160;2023-08-06T08:38:59;99570.45;;;19.92;87.67
77454;BME280;66538;53.150;18.160;2023-08-06T08:41:28;99568.61;;;19.97;87.76
77454;BME280;66538;53.150;18.160;2023-08-06T08:43:58;99565.93;;;20.04;87.63
77454;BME280;66538;53.150;18.160;2023-08-06T08:46:27;99565.47;;;20.11;87.07
77454;BME280;66538;53.150;18.160;2023-08-06T08:48:56;99554.95;;;20.15;86.89
77454;BME280;66538;53.150;18.160;2023-08-06T08:51:23;99544.62;;;20.21;86.93
77454;BME280;66538;53.150;18.160;2023-08-06T08:53:53;99544.55;;;20.25;86.95
77454;BME280;66538;53.150;18.160;2023-08-06T08:56:24;99546.81;;;20.28;86.67
77454;BME280;66538;53.150;18.160;2023-08-06T08:58:51;99541.80;;;20.33;86.51
77454;BME280;66538;53.150;18.160;2023-08-06T09:01:24;99543.56;;;20.38;86.53
77454;BME280;66538;53.150;18.160;2023-08-06T09:03:51;99541.00;;;20.40;86.57
77454;BME280;66538;53.150;18.160;2023-08-06T09:06:20;99531.35;;;20.41;86.43
77454;BME280;66538;53.150;18.160;2023-08-06T09:08:56;99524.54;;;20.43;86.12
77454;BME280;66538;53.150;18.160;2023-08-06T09:11:27;99523.20;;;20.39;86.32
77454;BME280;66538;53.150;18.160;2023-08-06T09:13:54;99518.83;;;20.34;86.56
77454;BME280;66538;53.150;18.160;2023-08-06T09:16:21;99518.79;;;20.32;86.78
77454;BME280;66538;53.150;18.160;2023-08-06T09:18:48;99517.17;;;20.30;86.80
77454;BME280;66538;53.150;18.160;2023-08-06T09:21:15;99516.34;;;20.28;86.79
77454;BME280;66538;53.150;18.160;2023-08-06T09:23:44;99513.21;;;20.26;86.89
77454;BME280;66538;53.150;18.160;2023-08-06T09:26:11;99514.30;;;20.21;87.02
77454;BME280;66538;53.150;18.160;2023-08-06T09:28:39;99511.82;;;20.19;87.19
77454;BME280;66538;53.150;18.160;2023-08-06T09:31:09;99507.48;;;20.19;87.27
77454;BME280;66538;53.150;18.160;2023-08-06T09:33:37;99503.20;;;20.18;87.43
77454;BME280;66538;53.150;18.160;2023-08-06T09:36:11;99500.80;;;20.19;87.37
77454;BME280;66538;53.150;18.160;2023-08-06T09:38:39;99497.02;;;20.23;87.42
77454;BME280;66538;53.150;18.160;2023-08-06T09:41:07;99494.75;;;20.24;87.43
77454;BME280;66538;53.150;18.160;2023-08-06T09:43:43;99495.88;;;20.29;87.51
77454;BME280;66538;53.150;18.160;2023-08-06T09:46:13;99486.41;;;20.31;87.35
77454;BME280;66538;53.150;18.160;2023-08-06T09:48:46;99473.85;;;20.33;87.27
77454;BME280;66538;53.150;18.160;2023-08-06T09:51:13;99470.05;;;20.33;87.44
77454;BME280;66538;53.150;18.160;2023-08-06T09:53:41;99464.49;;;20.34;87.52
77454;BME280;66538;53.150;18.160;2023-08-06T09:56:09;99460.08;;;20.30;87.70
77454;BME280;66538;53.150;18.160;2023-08-06T09:58:38;99463.46;;;20.38;87.93
77454;BME280;66538;53.150;18.160;2023-08-06T10:01:05;99464.73;;;20.38;87.77
77454;BME280;66538;53.150;18.160;2023-08-06T10:03:33;99454.66;;;20.39;87.69
77454;BME280;66538;53.150;18.160;2023-08-06T10:06:00;99450.16;;;20.46;87.46
77454;BME280;66538;53.150;18.160;2023-08-06T10:08:32;99436.07;;;20.51;87.56
77454;BME280;66538;53.150;18.160;2023-08-06T10:11:01;99435.07;;;20.52;87.47
77454;BME280;66538;53.150;18.160;2023-08-06T10:13:31;99437.52;;;20.53;87.45
77454;BME280;66538;53.150;18.160;2023-08-06T10:16:01;99430.33;;;20.51;87.37
77454;BME280;66538;53.150;18.160;2023-08-06T10:18:29;99436.09;;;20.52;87.32
77454;BME280;66538;53.150;18.160;2023-08-06T10:20:56;99439.95;;;20.48;87.58
77454;BME280;66538;53.150;18.160;2023-08-06T10:23:33;99434.54;;;20.45;87.80
77454;BME280;66538;53.150;18.160;2023-08-06T10:26:01;99426.77;;;20.46;87.70
77454;BME280;66538;53.150;18.160;2023-08-06T10:28:35;99423.64;;;20.48;87.71
77454;BME280;66538;53.150;18.160;2023-08-06T10:31:03;99417.16;;;20.55;87.72
77454;BME280;66538;53.150;18.160;2023-08-06T10:33:44;99415.91;;;20.64;87.62
77454;BME280;66538;53.150;18.160;2023-08-06T10:36:12;99416.73;;;20.66;87.50
77454;BME280;66538;53.150;18.160;2023-08-06T10:38:49;99406.73;;;20.67;87.49
77454;BME280;66538;53.150;18.160;2023-08-06T10:41:22;99400.36;;;20.71;87.46
77454;BME280;66538;53.150;18.160;2023-08-06T10:43:49;99394.15;;;20.76;87.52
77454;BME280;66538;53.150;18.160;2023-08-06T10:46:23;99389.09;;;20.80;87.43
77454;BME280;66538;53.150;18.160;2023-08-06T10:48:50;99386.45;;;20.86;87.31
77454;BME280;66538;53.150;18.160;2023-08-06T10:51:17;99383.53;;;20.91;87.25
77454;BME280;66538;53.150;18.160;2023-08-06T10:53:50;99377.64;;;21.00;86.98
77454;BME280;66538;53.150;18.160;2023-08-06T10:56:22;99369.29;;;21.11;86.64
77454;BME280;66538;53.150;18.160;2023-08-06T10:58:51;99359.52;;;21.17;86.54
77454;BME280;66538;53.150;18.160;2023-08-06T11:01:18;99353.75;;;21.26;86.15
77454;BME280;66538;53.150;18.160;2023-08-06T11:03:46;99353.42;;;21.31;86.16
77454;BME280;66538;53.150;18.160;2023-08-06T11:06:17;99354.13;;;21.41;86.06
77454;BME280;66538;53.150;18.160;2023-08-06T11:08:51;99347.21;;;21.43;85.80
77454;BME280;66538;53.150;18.160;2023-08-06T11:11:18;99336.46;;;21.36;86.06
77454;BME280;66538;53.150;18.160;2023-08-06T11:13:46;99336.86;;;21.41;86.15
77454;BME280;66538;53.150;18.160;2023-08-06T11:16:19;99341.79;;;21.38;85.78
77454;BME280;66538;53.150;18.160;2023-08-06T11:18:46;99338.06;;;21.32;86.00
77454;BME280;66538;53.150;18.160;2023-08-06T11:21:13;99333.02;;;21.27;86.22
77454;BME280;66538;53.150;18.160;2023-08-06T11:23:41;99327.35;;;21.23;86.29
77454;BME280;66538;53.150;18.160;2023-08-06T11:26:08;99319.36;;;21.15;86.12
77454;BME280;66538;53.150;18.160;2023-08-06T11:28:34;99315.98;;;21.11;86.24
77454;BME280;66538;53.150;18.160;2023-08-06T11:31:01;99315.09;;;21.09;86.46
77454;BME280;66538;53.150;18.160;2023-08-06T11:33:30;99312.92;;;21.06;86.57
77454;BME280;66538;53.150;18.160;2023-08-06T11:35:59;99308.39;;;21.04;86.54
77454;BME280;66538;53.150;18.160;2023-08-06T11:38:27;99299.91;;;21.07;86.64
77454;BME280;66538;53.150;18.160;2023-08-06T11:40:55;99282.73;;;21.18;86.48
77454;BME280;66538;53.150;18.160;2023-08-06T11:43:22;99272.91;;;21.44;86.02
77454;BME280;66538;53.150;18.160;2023-08-06T11:45:49;99269.09;;;21.66;85.59
77454;BME280;66538;53.150;18.160;2023-08-06T11:48:17;99267.95;;;21.81;85.22
77454;BME280;66538;53.150;18.160;2023-08-06T11:50:45;99264.52;;;21.91;85.03
77454;BME280;66538;53.150;18.160;2023-08-06T11:53:13;99257.42;;;21.95;84.80
77454;BME280;66538;53.150;18.160;2023-08-06T11:55:41;99254.68;;;21.95;84.45
77454;BME280;66538;53.150;18.160;2023-08-06T11:58:09;99248.67;;;21.94;84.51
77454;BME280;66538;53.150;18.160;2023-08-06T12:00:37;99239.98;;;21.94;84.29
77454;BME280;66538;53.150;18.160;2023-08-06T12:03:04;99231.88;;;21.95;84.45
77454;BME280;66538;53.150;18.160;2023-08-06T12:05:32;99230.77;;;21.97;84.31
77454;BME280;66538;53.150;18.160;2023-08-06T12:08:04;99227.71;;;21.99;84.34
77454;BME280;66538;53.150;18.160;2023-08-06T12:10:32;99230.91;;;21.94;84.40
77454;BME280;66538;53.150;18.160;2023-08-06T12:12:59;99235.51;;;21.89;84.54
77454;BME280;66538;53.150;18.160;2023-08-06T12:15:26;99241.67;;;21.82;84.58
77454;BME280;66538;53.150;18.160;2023-08-06T12:17:52;99239.63;;;21.75;84.83
77454;BME280;66538;53.150;18.160;2023-08-06T12:20:19;99239.99;;;21.68;85.06
77454;BME280;66538;53.150;18.160;2023-08-06T12:22:46;99245.18;;;21.60;85.09
77454;BME280;66538;53.150;18.160;2023-08-06T12:25:13;99244.91;;;21.50;85.53
77454;BME280;66538;53.150;18.160;2023-08-06T12:27:42;99244.02;;;21.42;85.72
77454;BME280;66538;53.150;18.160;2023-08-06T12:30:09;99239.95;;;21.38;85.80
77454;BME280;66538;53.150;18.160;2023-08-06T12:32:37;99242.19;;;21.34;86.21
77454;BME280;66538;53.150;18.160;2023-08-06T12:35:04;99235.81;;;21.29;86.27
77454;BME280;66538;53.150;18.160;2023-08-06T12:37:34;99229.87;;;21.27;86.39
77454;BME280;66538;53.150;18.160;2023-08-06T12:40:00;99227.39;;;21.25;86.54
77454;BME280;66538;53.150;18.160;2023-08-06T12:42:27;99227.35;;;21.22;86.61
77454;BME280;66538;53.150;18.160;2023-08-06T12:44:54;99223.16;;;21.21;86.66
77454;BME280;66538;53.150;18.160;2023-08-06T12:47:20;99213.98;;;21.25;86.70
77454;BME280;66538;53.150;18.160;2023-08-06T12:49:47;99200.25;;;21.30;86.72
77454;BME280;66538;53.150;18.160;2023-08-06T12:52:14;99199.88;;;21.32;86.77
77454;BME280;66538;53.150;18.160;2023-08-06T12:54:42;99210.86;;;21.34;86.96
77454;BME280;66538;53.150;18.160;2023-08-06T12:57:08;99208.32;;;21.32;87.06